createdAt,value
2019-01-21T00:00:44.605Z,1013.3
2019-01-21T00:01:47.222Z,1013.2
2019-01-21T00:02:49.518Z,1013.3
2019-01-21T00:03:51.524Z,1013.3
2019-01-21T00:04:53.543Z,1013.3
2019-01-21T00:05:55.558Z,1013.3
2019-01-21T00:06:57.955Z,1013.3
2019-01-21T00:07:59.983Z,1013.2
2019-01-21T00:09:02.271Z,1013.3
2019-01-21T00:10:04.285Z,1013.3
2019-01-21T00:11:06.587Z,1013.1
2019-01-21T00:12:08.607Z,1013.2
2019-01-21T00:13:10.620Z,1013.2
2019-01-21T00:14:13.321Z,1013.2
2019-01-21T00:15:15.898Z,1013.2
2019-01-21T00:16:18.566Z,1013.2
2019-01-21T00:17:22.991Z,1013.3
2019-01-21T00:18:25.008Z,1013.2
2019-01-21T00:19:27.017Z,1013.1
2019-01-21T00:20:29.079Z,1013.2
2019-01-21T00:21:31.380Z,1013.2
2019-01-21T00:22:33.398Z,1013.2
2019-01-21T00:23:35.398Z,1013.2
2019-01-21T00:24:37.413Z,1013.2
2019-01-21T00:25:40.097Z,1013.1
2019-01-21T00:26:42.111Z,1013.1
2019-01-21T00:27:44.121Z,1013.1
2019-01-21T00:28:46.150Z,1013.2
2019-01-21T00:29:48.169Z,1013.1
2019-01-21T00:30:50.741Z,1013.2
2019-01-21T00:31:52.807Z,1013.2
2019-01-21T00:32:54.805Z,1013.2
2019-01-21T00:33:56.825Z,1013.2
2019-01-21T00:34:58.832Z,1013.2
2019-01-21T00:36:00.853Z,1013.3
2019-01-21T00:37:03.942Z,1013.3
2019-01-21T00:38:05.970Z,1013.3
2019-01-21T00:39:08.263Z,1013.4
2019-01-21T00:40:10.286Z,1013.3
2019-01-21T00:41:12.321Z,1013.3
2019-01-21T00:42:14.761Z,1013.4
2019-01-21T00:43:17.066Z,1013.3
2019-01-21T00:44:19.091Z,1013.3
2019-01-21T00:45:21.112Z,1013.3
2019-01-21T00:46:23.123Z,1013.3
2019-01-21T00:47:30.447Z,1013.4
2019-01-21T00:48:32.467Z,1013.4
2019-01-21T00:49:34.470Z,1013.3
2019-01-21T00:50:36.495Z,1013.4
2019-01-21T00:51:38.799Z,1013.4
2019-01-21T00:52:40.820Z,1013.4
2019-01-21T00:53:42.836Z,1013.4
2019-01-21T00:54:45.138Z,1013.4
2019-01-21T00:55:47.148Z,1013.5
2019-01-21T00:56:49.241Z,1013.4
2019-01-21T00:57:51.646Z,1013.5
2019-01-21T00:58:53.657Z,1013.5
2019-01-21T00:59:55.950Z,1013.6
2019-01-21T01:00:57.958Z,1013.6
2019-01-21T01:01:59.981Z,1013.7
2019-01-21T01:03:02.001Z,1013.6
2019-01-21T01:04:04.007Z,1013.6
2019-01-21T01:05:06.030Z,1013.6
2019-01-21T01:06:08.027Z,1013.6
2019-01-21T01:07:10.041Z,1013.7
2019-01-21T01:08:12.057Z,1013.6
2019-01-21T01:09:14.078Z,1013.7
2019-01-21T01:10:16.089Z,1013.6
2019-01-21T01:11:18.106Z,1013.7
2019-01-21T01:12:20.120Z,1013.7
2019-01-21T01:13:22.125Z,1013.7
2019-01-21T01:14:24.537Z,1013.7
2019-01-21T01:15:26.549Z,1013.6
2019-01-21T01:16:28.561Z,1013.7
2019-01-21T01:17:37.366Z,1013.7
2019-01-21T01:18:39.681Z,1013.7
2019-01-21T01:19:41.688Z,1013.7
2019-01-21T01:20:43.754Z,1013.7
2019-01-21T01:21:46.153Z,1013.7
2019-01-21T01:22:48.152Z,1013.7
2019-01-21T01:23:50.174Z,1013.7
2019-01-21T01:24:52.205Z,1013.7
2019-01-21T01:25:54.210Z,1013.7
2019-01-21T01:26:56.220Z,1013.7
2019-01-21T01:27:58.243Z,1013.7
2019-01-21T01:29:00.274Z,1013.7
2019-01-21T01:30:02.301Z,1013.6
2019-01-21T01:31:04.590Z,1013.7
2019-01-21T01:32:06.598Z,1013.7
2019-01-21T01:33:08.618Z,1013.7
2019-01-21T01:34:10.635Z,1013.7
2019-01-21T01:35:12.931Z,1013.7
2019-01-21T01:36:15.223Z,1013.7
2019-01-21T01:37:17.244Z,1013.8
2019-01-21T01:38:19.264Z,1013.7
2019-01-21T01:39:21.265Z,1013.8
2019-01-21T01:40:23.289Z,1013.8
2019-01-21T01:41:25.594Z,1013.8
2019-01-21T01:42:27.638Z,1013.8
2019-01-21T01:43:29.945Z,1013.8
2019-01-21T01:44:32.008Z,1013.8
2019-01-21T01:45:34.042Z,1013.8
2019-01-21T01:46:36.066Z,1013.8
2019-01-21T01:47:45.210Z,1013.8
2019-01-21T01:48:47.775Z,1013.8
2019-01-21T01:49:50.536Z,1013.9
2019-01-21T01:50:53.266Z,1013.8
2019-01-21T01:51:55.314Z,1013.7
2019-01-21T01:52:57.349Z,1013.7
2019-01-21T01:53:59.390Z,1013.8
2019-01-21T01:55:01.432Z,1013.7
2019-01-21T01:56:03.736Z,1013.7
2019-01-21T01:57:05.783Z,1013.7
2019-01-21T01:58:07.827Z,1013.6
2019-01-21T01:59:09.858Z,1013.6
2019-01-21T02:00:11.889Z,1013.6
2019-01-21T02:01:14.238Z,1013.6
2019-01-21T02:02:17.269Z,1013.5
2019-01-21T02:03:19.591Z,1013.5
2019-01-21T02:04:21.626Z,1013.5
2019-01-21T02:05:23.671Z,1013.5
2019-01-21T02:06:25.703Z,1013.4
2019-01-21T02:07:27.747Z,1013.4
2019-01-21T02:08:29.778Z,1013.4
2019-01-21T02:09:31.850Z,1013.3
2019-01-21T02:10:34.264Z,1013.4
2019-01-21T02:11:36.571Z,1013.3
2019-01-21T02:12:38.638Z,1013.3
2019-01-21T02:13:41.010Z,1013.3
2019-01-21T02:14:44.114Z,1013.4
2019-01-21T02:15:46.144Z,1013.3
2019-01-21T02:16:48.565Z,1013.3
2019-01-21T02:17:52.565Z,1013.4
2019-01-21T02:18:54.604Z,1013.3
2019-01-21T02:19:56.655Z,1013.3
2019-01-21T02:20:58.681Z,1013.3
2019-01-21T02:22:00.716Z,1013.3
2019-01-21T02:23:02.743Z,1013.2
2019-01-21T02:24:04.816Z,1013.2
2019-01-21T02:25:07.132Z,1013.2
2019-01-21T02:26:09.789Z,1013.1
2019-01-21T02:27:13.077Z,1013.1
2019-01-21T02:28:15.108Z,1013.1
2019-01-21T02:29:17.454Z,1013.1
2019-01-21T02:30:19.487Z,1013.1
2019-01-21T02:31:21.539Z,1013.1
2019-01-21T02:32:23.865Z,1013
2019-01-21T02:33:25.894Z,1013
2019-01-21T02:34:27.968Z,1013.1
2019-01-21T02:35:30.053Z,1013
2019-01-21T02:36:32.092Z,1013
2019-01-21T02:37:34.131Z,1013.1
2019-01-21T02:38:37.172Z,1013
2019-01-21T02:39:40.100Z,1013
2019-01-21T02:40:43.044Z,1013
2019-01-21T02:41:45.157Z,1013
2019-01-21T02:42:47.962Z,1013
2019-01-21T02:43:50.023Z,1013
2019-01-21T02:44:52.472Z,1013
2019-01-21T02:45:54.499Z,1013
2019-01-21T02:46:56.577Z,1013
2019-01-21T02:48:00.570Z,1013
2019-01-21T02:49:02.630Z,1013
2019-01-21T02:50:04.953Z,1013
2019-01-21T02:51:07.007Z,1013
2019-01-21T02:52:09.939Z,1013
2019-01-21T02:53:13.355Z,1013.1
2019-01-21T02:54:15.409Z,1013
2019-01-21T02:55:17.449Z,1013
2019-01-21T02:56:19.482Z,1012.9
2019-01-21T02:57:21.799Z,1012.9
2019-01-21T02:58:23.830Z,1012.9
2019-01-21T02:59:25.883Z,1012.9
2019-01-21T03:00:28.210Z,1012.9
2019-01-21T03:01:30.242Z,1012.9
2019-01-21T03:02:32.311Z,1012.9
2019-01-21T03:03:34.791Z,1012.8
2019-01-21T03:04:37.157Z,1012.8
2019-01-21T03:05:40.423Z,1012.8
2019-01-21T03:06:42.454Z,1012.8
2019-01-21T03:07:44.555Z,1012.8
2019-01-21T03:08:47.277Z,1012.8
2019-01-21T03:09:49.602Z,1012.8
2019-01-21T03:10:52.304Z,1012.8
2019-01-21T03:11:55.424Z,1012.8
2019-01-21T03:12:57.491Z,1012.8
2019-01-21T03:13:59.547Z,1012.8
2019-01-21T03:15:01.600Z,1012.8
2019-01-21T03:16:03.641Z,1012.8
2019-01-21T03:17:05.892Z,1012.8
2019-01-21T03:18:09.221Z,1012.7
2019-01-21T03:19:11.267Z,1012.8
2019-01-21T03:20:13.302Z,1012.8
2019-01-21T03:21:15.339Z,1012.7
2019-01-21T03:22:17.378Z,1012.8
2019-01-21T03:23:19.790Z,1012.7
2019-01-21T03:24:21.824Z,1012.6
2019-01-21T03:25:24.137Z,1012.6
2019-01-21T03:26:26.182Z,1012.6
2019-01-21T03:27:28.529Z,1012.5
2019-01-21T03:28:30.890Z,1012.5
2019-01-21T03:29:33.286Z,1012.5
2019-01-21T03:30:36.617Z,1012.5
2019-01-21T03:31:39.362Z,1012.5
2019-01-21T03:32:42.287Z,1012.6
2019-01-21T03:33:45.007Z,1012.6
2019-01-21T03:34:47.082Z,1012.6
2019-01-21T03:35:49.827Z,1012.6
2019-01-21T03:36:51.895Z,1012.6
2019-01-21T03:37:54.669Z,1012.6
2019-01-21T03:38:57.061Z,1012.6
2019-01-21T03:39:59.129Z,1012.6
2019-01-21T03:41:01.425Z,1012.5
2019-01-21T03:42:03.743Z,1012.6
2019-01-21T03:43:06.848Z,1012.6
2019-01-21T03:44:08.887Z,1012.6
2019-01-21T03:45:10.957Z,1012.6
2019-01-21T03:46:13.321Z,1012.5
2019-01-21T03:47:15.360Z,1012.6
2019-01-21T03:48:17.978Z,1012.5
2019-01-21T03:49:20.037Z,1012.6
2019-01-21T03:50:22.453Z,1012.6
2019-01-21T03:51:24.526Z,1012.6
2019-01-21T03:52:26.551Z,1012.6
2019-01-21T03:53:28.652Z,1012.6
2019-01-21T03:54:31.003Z,1012.6
2019-01-21T03:55:34.224Z,1012.6
2019-01-21T03:56:36.684Z,1012.6
2019-01-21T03:57:38.726Z,1012.5
2019-01-21T03:58:40.768Z,1012.6
2019-01-21T03:59:43.074Z,1012.6
2019-01-21T04:00:45.144Z,1012.6
2019-01-21T04:01:47.178Z,1012.5
2019-01-21T04:02:49.511Z,1012.5
2019-01-21T04:03:51.583Z,1012.6
2019-01-21T04:04:53.930Z,1012.5
2019-01-21T04:05:56.249Z,1012.6
2019-01-21T04:06:58.567Z,1012.5
2019-01-21T04:08:01.477Z,1012.5
2019-01-21T04:09:03.505Z,1012.6
2019-01-21T04:10:05.549Z,1012.5
2019-01-21T04:11:07.595Z,1012.5
2019-01-21T04:12:09.699Z,1012.5
2019-01-21T04:13:11.748Z,1012.5
2019-01-21T04:14:13.828Z,1012.5
2019-01-21T04:15:15.864Z,1012.5
2019-01-21T04:16:18.299Z,1012.5
2019-01-21T04:17:20.363Z,1012.4
2019-01-21T04:18:24.910Z,1012.4
2019-01-21T04:19:27.253Z,1012.4
2019-01-21T04:20:32.041Z,1012.3
2019-01-21T04:21:35.171Z,1012.3
2019-01-21T04:22:37.203Z,1012.3
2019-01-21T04:23:39.252Z,1012.3
2019-01-21T04:24:41.313Z,1012.3
2019-01-21T04:25:43.336Z,1012.3
2019-01-21T04:26:45.761Z,1012.2
2019-01-21T04:27:47.811Z,1012.3
2019-01-21T04:28:49.854Z,1012.2
2019-01-21T04:29:52.172Z,1012.3
2019-01-21T04:30:54.803Z,1012.2
2019-01-21T04:31:57.547Z,1012.2
2019-01-21T04:33:00.111Z,1012.2
2019-01-21T04:34:03.087Z,1012.2
2019-01-21T04:35:05.428Z,1012.2
2019-01-21T04:36:07.778Z,1012.2
2019-01-21T04:37:09.822Z,1012.2
2019-01-21T04:38:12.462Z,1012.1
2019-01-21T04:39:14.498Z,1012.2
2019-01-21T04:40:16.536Z,1012.1
2019-01-21T04:41:18.614Z,1012.1
2019-01-21T04:42:20.660Z,1012.1
2019-01-21T04:43:22.715Z,1012.1
2019-01-21T04:44:25.003Z,1012.1
2019-01-21T04:45:28.080Z,1012.1
2019-01-21T04:46:30.497Z,1012.1
2019-01-21T04:47:33.208Z,1012.1
2019-01-21T04:48:35.237Z,1012.2
2019-01-21T04:49:37.291Z,1012.2
2019-01-21T04:50:39.933Z,1012.3
2019-01-21T04:51:41.958Z,1012.3
2019-01-21T04:52:44.396Z,1012.3
2019-01-21T04:53:46.448Z,1012.3
2019-01-21T04:54:48.481Z,1012.3
2019-01-21T04:55:51.519Z,1012.3
2019-01-21T04:56:53.854Z,1012.3
2019-01-21T04:57:56.362Z,1012.3
2019-01-21T04:58:59.099Z,1012.3
2019-01-21T05:00:01.415Z,1012.3
2019-01-21T05:01:03.488Z,1012.2
2019-01-21T05:02:05.825Z,1012.2
2019-01-21T05:03:07.924Z,1012.1
2019-01-21T05:04:09.969Z,1012.1
2019-01-21T05:05:12.018Z,1012.1
2019-01-21T05:06:14.078Z,1012.1
2019-01-21T05:07:16.119Z,1012.1
2019-01-21T05:08:18.188Z,1012.2
2019-01-21T05:09:20.833Z,1012.1
2019-01-21T05:10:24.423Z,1012.1
2019-01-21T05:11:26.852Z,1012
2019-01-21T05:12:28.901Z,1012
2019-01-21T05:13:30.935Z,1012
2019-01-21T05:14:33.251Z,1012
2019-01-21T05:15:35.307Z,1012
2019-01-21T05:16:37.641Z,1011.9
2019-01-21T05:17:39.677Z,1011.9
2019-01-21T05:18:42.166Z,1011.9
2019-01-21T05:19:44.494Z,1011.8
2019-01-21T05:20:46.806Z,1011.9
2019-01-21T05:21:49.496Z,1012
2019-01-21T05:22:52.847Z,1012
2019-01-21T05:23:54.895Z,1012
2019-01-21T05:24:57.237Z,1011.9
2019-01-21T05:25:59.287Z,1011.9
2019-01-21T05:27:01.616Z,1011.9
2019-01-21T05:28:03.937Z,1012
2019-01-21T05:29:05.990Z,1012
2019-01-21T05:30:08.317Z,1011.9
2019-01-21T05:31:10.352Z,1011.9
2019-01-21T05:32:12.415Z,1011.9
2019-01-21T05:33:14.771Z,1012
2019-01-21T05:34:17.585Z,1011.9
2019-01-21T05:35:19.620Z,1011.9
2019-01-21T05:36:23.530Z,1011.8
2019-01-21T05:37:25.570Z,1011.8
2019-01-21T05:38:27.609Z,1011.8
2019-01-21T05:39:29.641Z,1011.8
2019-01-21T05:40:31.926Z,1011.8
2019-01-21T05:41:33.961Z,1011.8
2019-01-21T05:42:36.005Z,1011.7
2019-01-21T05:43:38.027Z,1011.7
2019-01-21T05:44:40.034Z,1011.7
2019-01-21T05:45:42.064Z,1011.7
2019-01-21T05:46:44.103Z,1011.7
2019-01-21T05:47:46.120Z,1011.7
2019-01-21T05:48:49.404Z,1011.7
2019-01-21T05:49:51.744Z,1011.7
2019-01-21T05:50:53.767Z,1011.8
2019-01-21T05:51:55.849Z,1011.7
2019-01-21T05:52:57.883Z,1011.7
2019-01-21T05:54:00.565Z,1011.8
2019-01-21T05:55:03.288Z,1011.8
2019-01-21T05:56:05.302Z,1011.8
2019-01-21T05:57:07.332Z,1011.7
2019-01-21T05:58:09.640Z,1011.7
2019-01-21T05:59:11.949Z,1011.7
2019-01-21T06:00:13.960Z,1011.6
2019-01-21T06:01:16.272Z,1011.7
2019-01-21T06:02:19.242Z,1011.6
2019-01-21T06:03:21.253Z,1011.6
2019-01-21T06:04:23.573Z,1011.6
2019-01-21T06:05:25.575Z,1011.5
2019-01-21T06:06:27.591Z,1011.6
2019-01-21T06:07:29.612Z,1011.5
2019-01-21T06:08:31.630Z,1011.5
2019-01-21T06:09:33.917Z,1011.5
2019-01-21T06:10:35.932Z,1011.6
2019-01-21T06:11:37.955Z,1011.6
2019-01-21T06:12:39.976Z,1011.5
2019-01-21T06:13:42.387Z,1011.6
2019-01-21T06:14:44.681Z,1011.5
2019-01-21T06:15:46.698Z,1011.5
2019-01-21T06:16:48.710Z,1011.5
2019-01-21T06:17:50.730Z,1011.6
2019-01-21T06:18:57.735Z,1011.5
2019-01-21T06:19:59.786Z,1011.6
2019-01-21T06:21:01.830Z,1011.6
2019-01-21T06:22:04.123Z,1011.6
2019-01-21T06:23:06.462Z,1011.6
2019-01-21T06:24:08.496Z,1011.6
2019-01-21T06:25:10.517Z,1011.6
2019-01-21T06:26:13.201Z,1011.6
2019-01-21T06:27:15.226Z,1011.6
2019-01-21T06:28:17.514Z,1011.5
2019-01-21T06:29:19.535Z,1011.6
2019-01-21T06:30:21.553Z,1011.6
2019-01-21T06:31:23.553Z,1011.6
2019-01-21T06:32:25.573Z,1011.6
2019-01-21T06:33:27.601Z,1011.6
2019-01-21T06:34:29.663Z,1011.6
2019-01-21T06:35:31.687Z,1011.6
2019-01-21T06:36:33.709Z,1011.6
2019-01-21T06:37:36.000Z,1011.7
2019-01-21T06:38:38.028Z,1011.7
2019-01-21T06:39:40.037Z,1011.7
2019-01-21T06:40:42.063Z,1011.7
2019-01-21T06:41:44.357Z,1011.7
2019-01-21T06:42:46.373Z,1011.8
2019-01-21T06:43:48.399Z,1011.8
2019-01-21T06:44:50.416Z,1011.8
2019-01-21T06:45:52.424Z,1011.8
2019-01-21T06:46:54.456Z,1011.8
2019-01-21T06:47:56.750Z,1011.8
2019-01-21T06:49:05.118Z,1011.8
2019-01-21T06:50:08.844Z,1011.8
2019-01-21T06:51:10.876Z,1011.9
2019-01-21T06:52:12.893Z,1011.9
2019-01-21T06:53:15.207Z,1011.9
2019-01-21T06:54:17.230Z,1011.9
2019-01-21T06:55:19.233Z,1012
2019-01-21T06:56:21.270Z,1012
2019-01-21T06:57:23.298Z,1011.9
2019-01-21T06:58:25.308Z,1012
2019-01-21T06:59:27.327Z,1011.9
2019-01-21T07:00:29.396Z,1011.9
2019-01-21T07:01:31.406Z,1012
2019-01-21T07:02:35.469Z,1012
2019-01-21T07:03:37.869Z,1012
2019-01-21T07:04:39.881Z,1011.9
2019-01-21T07:05:42.179Z,1012
2019-01-21T07:06:44.209Z,1012
2019-01-21T07:07:46.217Z,1011.9
2019-01-21T07:08:48.247Z,1011.9
2019-01-21T07:09:50.270Z,1012
2019-01-21T07:10:52.272Z,1011.9
2019-01-21T07:11:54.307Z,1012
2019-01-21T07:12:56.615Z,1012
2019-01-21T07:13:58.916Z,1012
2019-01-21T07:15:00.974Z,1012
2019-01-21T07:16:03.003Z,1012
2019-01-21T07:17:05.012Z,1012
2019-01-21T07:18:07.307Z,1011.9
2019-01-21T07:19:11.372Z,1011.9
2019-01-21T07:20:13.374Z,1011.9
2019-01-21T07:21:15.396Z,1012
2019-01-21T07:22:17.711Z,1012
2019-01-21T07:23:19.727Z,1011.9
2019-01-21T07:24:21.734Z,1011.9
2019-01-21T07:25:24.038Z,1011.9
2019-01-21T07:26:26.045Z,1011.9
2019-01-21T07:27:28.056Z,1012
2019-01-21T07:28:30.080Z,1011.8
2019-01-21T07:29:32.372Z,1011.8
2019-01-21T07:30:34.390Z,1011.8
2019-01-21T07:31:36.709Z,1011.8
2019-01-21T07:32:39.005Z,1011.8
2019-01-21T07:33:41.036Z,1011.7
2019-01-21T07:34:43.056Z,1011.8
2019-01-21T07:35:45.091Z,1011.8
2019-01-21T07:36:47.112Z,1011.7
2019-01-21T07:37:49.143Z,1011.8
2019-01-21T07:38:51.164Z,1011.7
2019-01-21T07:39:53.177Z,1011.8
2019-01-21T07:40:55.194Z,1011.7
2019-01-21T07:41:57.205Z,1011.7
2019-01-21T07:43:00.638Z,1011.8
2019-01-21T07:44:02.949Z,1011.7
2019-01-21T07:45:04.944Z,1011.7
2019-01-21T07:46:06.967Z,1011.7
2019-01-21T07:47:08.979Z,1011.7
2019-01-21T07:48:10.999Z,1011.7
2019-01-21T07:49:17.863Z,1011.7
2019-01-21T07:50:20.551Z,1011.7
2019-01-21T07:51:22.864Z,1011.7
2019-01-21T07:52:24.880Z,1011.8
2019-01-21T07:53:26.923Z,1011.8
2019-01-21T07:54:28.932Z,1011.8
2019-01-21T07:55:31.505Z,1011.8
2019-01-21T07:56:33.513Z,1011.7
2019-01-21T07:57:35.929Z,1011.7
2019-01-21T07:58:37.941Z,1011.7
2019-01-21T07:59:39.953Z,1011.7
2019-01-21T08:00:41.967Z,1011.7
2019-01-21T08:01:43.994Z,1011.7
2019-01-21T08:02:46.006Z,1011.8
2019-01-21T08:03:48.052Z,1011.7
2019-01-21T08:04:50.077Z,1011.8
2019-01-21T08:05:52.095Z,1011.8
2019-01-21T08:06:54.145Z,1011.8
2019-01-21T08:08:00.829Z,1011.7
2019-01-21T08:09:02.833Z,1011.7
2019-01-21T08:10:04.851Z,1011.8
2019-01-21T08:11:07.262Z,1011.7
2019-01-21T08:12:09.277Z,1011.7
2019-01-21T08:13:11.288Z,1011.7
2019-01-21T08:14:13.333Z,1011.7
2019-01-21T08:15:15.353Z,1011.7
2019-01-21T08:16:17.367Z,1011.7
2019-01-21T08:17:19.392Z,1011.6
2019-01-21T08:18:21.776Z,1011.6
2019-01-21T08:19:24.633Z,1011.7
2019-01-21T08:20:26.670Z,1011.7
2019-01-21T08:21:28.977Z,1011.6
2019-01-21T08:22:30.986Z,1011.7
2019-01-21T08:23:33.288Z,1011.6
2019-01-21T08:24:35.312Z,1011.6
2019-01-21T08:25:37.315Z,1011.6
2019-01-21T08:26:39.350Z,1011.6
2019-01-21T08:27:41.370Z,1011.5
2019-01-21T08:28:43.385Z,1011.6
2019-01-21T08:29:45.398Z,1011.5
2019-01-21T08:30:47.437Z,1011.5
2019-01-21T08:31:49.458Z,1011.5
2019-01-21T08:32:51.471Z,1011.4
2019-01-21T08:33:54.389Z,1011.4
2019-01-21T08:34:56.398Z,1011.3
2019-01-21T08:35:58.706Z,1011.4
2019-01-21T08:37:00.721Z,1011.4
2019-01-21T08:38:02.785Z,1011.2
2019-01-21T08:39:05.075Z,1011.3
2019-01-21T08:40:07.083Z,1011.2
2019-01-21T08:41:09.105Z,1011.3
2019-01-21T08:42:11.142Z,1011.3
2019-01-21T08:43:13.453Z,1011.2
2019-01-21T08:44:15.483Z,1011.2
2019-01-21T08:45:17.501Z,1011.2
2019-01-21T08:46:21.744Z,1011.1
2019-01-21T08:47:24.069Z,1011.2
2019-01-21T08:48:26.096Z,1011.2
2019-01-21T08:49:31.049Z,1011.2
2019-01-21T08:50:33.077Z,1011.1
2019-01-21T08:51:35.950Z,1011.2
2019-01-21T08:52:37.972Z,1011.2
2019-01-21T08:53:40.291Z,1011.2
2019-01-21T08:54:42.313Z,1011.1
2019-01-21T08:55:44.322Z,1011.2
2019-01-21T08:56:46.346Z,1011.1
2019-01-21T08:57:49.038Z,1011.1
2019-01-21T08:58:51.041Z,1011.2
2019-01-21T08:59:53.070Z,1011.2
2019-01-21T09:00:55.081Z,1011.2
2019-01-21T09:01:57.104Z,1011.2
2019-01-21T09:02:59.116Z,1011.2
2019-01-21T09:04:01.160Z,1011.3
2019-01-21T09:05:03.168Z,1011.3
2019-01-21T09:06:05.193Z,1011.3
2019-01-21T09:07:07.598Z,1011.2
2019-01-21T09:08:09.602Z,1011.3
2019-01-21T09:09:11.633Z,1011.3
2019-01-21T09:10:13.653Z,1011.3
2019-01-21T09:11:15.666Z,1011.3
2019-01-21T09:12:17.690Z,1011.2
2019-01-21T09:13:19.717Z,1011.3
2019-01-21T09:14:21.732Z,1011.3
2019-01-21T09:15:23.739Z,1011.2
2019-01-21T09:16:25.753Z,1011.3
2019-01-21T09:17:27.812Z,1011.3
2019-01-21T09:18:29.823Z,1011.3
2019-01-21T09:19:37.488Z,1011.4
2019-01-21T09:20:40.079Z,1011.4
2019-01-21T09:21:42.089Z,1011.4
2019-01-21T09:22:44.382Z,1011.4
2019-01-21T09:23:46.695Z,1011.4
2019-01-21T09:24:48.700Z,1011.4
2019-01-21T09:25:50.715Z,1011.4
2019-01-21T09:26:53.018Z,1011.3
2019-01-21T09:27:55.051Z,1011.4
2019-01-21T09:28:57.338Z,1011.3
2019-01-21T09:29:59.361Z,1011.3
2019-01-21T09:31:01.457Z,1011.4
2019-01-21T09:32:03.810Z,1011.4
2019-01-21T09:33:06.120Z,1011.4
2019-01-21T09:34:08.130Z,1011.3
2019-01-21T09:35:10.166Z,1011.3
2019-01-21T09:36:12.464Z,1011.4
2019-01-21T09:37:14.525Z,1011.4
2019-01-21T09:38:16.538Z,1011.3
2019-01-21T09:39:18.561Z,1011.3
2019-01-21T09:40:20.864Z,1011.3
2019-01-21T09:41:22.866Z,1011.2
2019-01-21T09:42:24.897Z,1011.2
2019-01-21T09:43:26.937Z,1011.1
2019-01-21T09:44:28.947Z,1011.2
2019-01-21T09:45:30.973Z,1011.3
2019-01-21T09:46:34.369Z,1011.2
2019-01-21T09:47:36.379Z,1011.2
2019-01-21T09:48:38.794Z,1011.3
2019-01-21T09:49:44.383Z,1011.3
2019-01-21T09:50:46.392Z,1011.3
2019-01-21T09:51:48.415Z,1011.2
2019-01-21T09:52:50.717Z,1011.3
2019-01-21T09:53:52.729Z,1011.3
2019-01-21T09:54:55.027Z,1011.2
2019-01-21T09:55:57.050Z,1011.3
2019-01-21T09:56:59.339Z,1011.2
2019-01-21T09:58:01.371Z,1011.1
2019-01-21T09:59:03.412Z,1011.1
2019-01-21T10:00:05.716Z,1011.1
2019-01-21T10:01:08.003Z,1011.1
2019-01-21T10:02:10.152Z,1011.1
2019-01-21T10:03:12.173Z,1011
2019-01-21T10:04:14.197Z,1011.1
2019-01-21T10:05:16.226Z,1011
2019-01-21T10:06:18.240Z,1011
2019-01-21T10:07:20.646Z,1011
2019-01-21T10:08:22.674Z,1011
2019-01-21T10:09:24.971Z,1011
2019-01-21T10:10:26.989Z,1011
2019-01-21T10:11:30.433Z,1010.9
2019-01-21T10:12:33.152Z,1010.9
2019-01-21T10:13:35.173Z,1010.9
2019-01-21T10:14:37.218Z,1010.9
2019-01-21T10:15:39.230Z,1010.9
2019-01-21T10:16:41.245Z,1010.9
2019-01-21T10:17:43.268Z,1010.9
2019-01-21T10:18:45.287Z,1011
2019-01-21T10:19:52.204Z,1011
2019-01-21T10:20:54.277Z,1011
2019-01-21T10:21:56.683Z,1011.1
2019-01-21T10:22:58.987Z,1011.1
2019-01-21T10:24:01.307Z,1011.1
2019-01-21T10:25:03.321Z,1011.1
2019-01-21T10:26:05.335Z,1011
2019-01-21T10:27:07.391Z,1011
2019-01-21T10:28:09.691Z,1011
2019-01-21T10:29:11.703Z,1011
2019-01-21T10:30:13.714Z,1011
2019-01-21T10:31:15.751Z,1011
2019-01-21T10:32:17.766Z,1011
2019-01-21T10:33:19.788Z,1011
2019-01-21T10:34:23.751Z,1011
2019-01-21T10:35:26.134Z,1011
2019-01-21T10:36:28.146Z,1010.9
2019-01-21T10:37:30.170Z,1011
2019-01-21T10:38:32.201Z,1011
2019-01-21T10:39:34.206Z,1011
2019-01-21T10:40:36.241Z,1011
2019-01-21T10:41:38.556Z,1010.9
2019-01-21T10:42:40.576Z,1010.8
2019-01-21T10:43:42.588Z,1010.8
2019-01-21T10:44:44.612Z,1010.8
2019-01-21T10:45:46.916Z,1010.8
2019-01-21T10:46:48.934Z,1010.8
2019-01-21T10:47:51.258Z,1010.8
2019-01-21T10:48:53.269Z,1010.8
2019-01-21T10:49:57.810Z,1010.8
2019-01-21T10:50:59.843Z,1010.8
2019-01-21T10:52:01.910Z,1010.8
2019-01-21T10:53:03.920Z,1010.7
2019-01-21T10:54:05.953Z,1010.7
2019-01-21T10:55:07.961Z,1010.6
2019-01-21T10:56:09.977Z,1010.6
2019-01-21T10:57:12.003Z,1010.6
2019-01-21T10:58:14.306Z,1010.5
2019-01-21T10:59:16.598Z,1010.5
2019-01-21T11:00:18.628Z,1010.5
2019-01-21T11:01:20.647Z,1010.5
2019-01-21T11:02:23.219Z,1010.5
2019-01-21T11:03:25.291Z,1010.4
2019-01-21T11:04:27.298Z,1010.4
2019-01-21T11:05:29.317Z,1010.5
2019-01-21T11:06:31.335Z,1010.3
2019-01-21T11:07:33.363Z,1010.5
2019-01-21T11:08:35.382Z,1010.5
2019-01-21T11:09:37.391Z,1010.5
2019-01-21T11:10:39.409Z,1010.5
2019-01-21T11:11:41.444Z,1010.5
2019-01-21T11:12:43.448Z,1010.5
2019-01-21T11:13:45.876Z,1010.5
2019-01-21T11:14:47.903Z,1010.4
2019-01-21T11:15:49.931Z,1010.5
2019-01-21T11:16:51.944Z,1010.5
2019-01-21T11:17:53.966Z,1010.4
2019-01-21T11:18:55.984Z,1010.4
2019-01-21T11:20:04.512Z,1010.4
2019-01-21T11:21:06.840Z,1010.3
2019-01-21T11:22:08.848Z,1010.3
2019-01-21T11:23:10.881Z,1010.3
2019-01-21T11:24:13.823Z,1010.3
2019-01-21T11:25:16.659Z,1010.2
2019-01-21T11:26:18.707Z,1010.2
2019-01-21T11:27:20.742Z,1010.2
2019-01-21T11:28:22.752Z,1010.1
2019-01-21T11:29:24.773Z,1010.1
2019-01-21T11:30:26.841Z,1010.2
2019-01-21T11:31:29.241Z,1010
2019-01-21T11:32:31.259Z,1010.1
2019-01-21T11:33:33.295Z,1010
2019-01-21T11:34:35.698Z,1010
2019-01-21T11:35:37.709Z,1009.9
2019-01-21T11:36:39.741Z,1010
2019-01-21T11:37:41.745Z,1010
2019-01-21T11:38:43.767Z,1009.9
2019-01-21T11:39:45.788Z,1010
2019-01-21T11:40:48.106Z,1009.9
2019-01-21T11:41:50.113Z,1010
2019-01-21T11:42:52.136Z,1010
2019-01-21T11:43:54.434Z,1009.9
2019-01-21T11:44:56.442Z,1010
2019-01-21T11:45:58.464Z,1010
2019-01-21T11:47:00.778Z,1010
2019-01-21T11:48:02.812Z,1010
2019-01-21T11:49:04.838Z,1010
2019-01-21T11:50:10.907Z,1010
2019-01-21T11:51:12.930Z,1010
2019-01-21T11:52:17.902Z,1010
2019-01-21T11:53:19.919Z,1010.1
2019-01-21T11:54:22.333Z,1010
2019-01-21T11:55:24.345Z,1010.1
2019-01-21T11:56:26.369Z,1010
2019-01-21T11:57:28.393Z,1010
2019-01-21T11:58:30.420Z,1009.9
2019-01-21T11:59:32.440Z,1010
2019-01-21T12:00:34.754Z,1010
2019-01-21T12:01:36.764Z,1010
2019-01-21T12:02:38.797Z,1010
2019-01-21T12:03:40.842Z,1010
2019-01-21T12:04:42.865Z,1010
2019-01-21T12:05:45.184Z,1010
2019-01-21T12:06:47.493Z,1010
2019-01-21T12:07:49.894Z,1009.9
2019-01-21T12:08:51.909Z,1009.9
2019-01-21T12:09:53.945Z,1009.9
2019-01-21T12:10:55.956Z,1009.9
2019-01-21T12:11:58.262Z,1009.9
2019-01-21T12:13:00.281Z,1009.8
2019-01-21T12:14:02.304Z,1009.8
2019-01-21T12:15:04.316Z,1009.8
2019-01-21T12:16:06.358Z,1009.8
2019-01-21T12:17:08.552Z,1009.8
2019-01-21T12:18:10.558Z,1009.8
2019-01-21T12:19:12.604Z,1009.8
2019-01-21T12:20:17.525Z,1009.7
2019-01-21T12:21:19.544Z,1009.7
2019-01-21T12:22:21.843Z,1009.8
2019-01-21T12:23:23.880Z,1009.7
2019-01-21T12:24:27.364Z,1009.7
2019-01-21T12:25:29.387Z,1009.6
2019-01-21T12:26:31.406Z,1009.7
2019-01-21T12:27:33.414Z,1009.7
2019-01-21T12:28:35.828Z,1009.6
2019-01-21T12:29:37.851Z,1009.6
2019-01-21T12:30:39.904Z,1009.5
2019-01-21T12:31:41.921Z,1009.5
2019-01-21T12:32:43.944Z,1009.5
2019-01-21T12:33:45.999Z,1009.5
2019-01-21T12:34:48.598Z,1009.6
2019-01-21T12:35:50.618Z,1009.5
2019-01-21T12:36:52.629Z,1009.5
2019-01-21T12:37:54.652Z,1009.5
2019-01-21T12:38:56.680Z,1009.5
2019-01-21T12:39:58.691Z,1009.4
2019-01-21T12:41:00.738Z,1009.4
2019-01-21T12:42:02.768Z,1009.4
2019-01-21T12:43:04.837Z,1009.4
2019-01-21T12:44:06.872Z,1009.4
2019-01-21T12:45:08.892Z,1009.4
2019-01-21T12:46:10.909Z,1009.4
2019-01-21T12:47:12.924Z,1009.3
2019-01-21T12:48:14.952Z,1009.3
2019-01-21T12:49:16.967Z,1009.3
2019-01-21T12:50:24.329Z,1009.3
2019-01-21T12:51:26.367Z,1009.3
2019-01-21T12:52:28.367Z,1009.2
2019-01-21T12:53:30.682Z,1009.2
2019-01-21T12:54:32.693Z,1009.1
2019-01-21T12:55:34.724Z,1009.2
2019-01-21T12:56:36.765Z,1009.1
2019-01-21T12:57:39.176Z,1009.1
2019-01-21T12:58:41.199Z,1009.2
2019-01-21T12:59:43.215Z,1009.1
2019-01-21T13:00:45.256Z,1009.1
2019-01-21T13:01:47.563Z,1009.2
2019-01-21T13:02:49.591Z,1009.1
2019-01-21T13:03:51.617Z,1009